createdAt,value
2022-08-24T00:00:28.506Z,18.53
2022-08-24T00:15:34.177Z,17.96
2022-08-24T00:30:39.792Z,17.90
2022-08-24T00:45:50.597Z,18.17
2022-08-24T01:01:00.840Z,17.83
2022-08-24T01:16:09.184Z,17.31
2022-08-24T01:31:14.927Z,16.81
2022-08-24T01:46:21.316Z,16.47
2022-08-24T02:01:29.293Z,16.33
2022-08-24T02:16:35.186Z,16.14
2022-08-24T02:31:40.808Z,16.12
2022-08-24T02:46:46.636Z,15.99
2022-08-24T03:01:52.888Z,15.89
2022-08-24T03:16:58.676Z,15.74
2022-08-24T03:32:05.454Z,15.62
2022-08-24T03:47:11.432Z,15.33
2022-08-24T04:02:17.232Z,14.99
2022-08-24T04:17:22.855Z,14.78
2022-08-24T04:32:28.621Z,14.64
2022-08-24T04:47:34.464Z,14.65
2022-08-24T05:02:44.836Z,14.62
2022-08-24T05:17:51.532Z,14.85
2022-08-24T05:32:58.247Z,15.63
2022-08-24T05:48:04.152Z,17.32
2022-08-24T06:03:14.689Z,18.21
2022-08-24T06:18:20.613Z,19.90
2022-08-24T06:33:26.466Z,21.14
2022-08-24T06:48:32.623Z,22.77
2022-08-24T07:03:38.342Z,23.76
2022-08-24T07:18:49.359Z,24.39
2022-08-24T07:33:56.029Z,25.75
2022-08-24T07:49:11.673Z,25.80
2022-08-24T08:04:22.237Z,26.76
2022-08-24T08:19:28.344Z,27.06
2022-08-24T08:34:34.229Z,27.31
2022-08-24T08:50:06.863Z,29.01
2022-08-24T09:05:43.915Z,29.37
2022-08-24T09:21:03.644Z,30.03
2022-08-24T09:36:14.589Z,30.95
2022-08-24T09:52:04.137Z,30.69
2022-08-24T10:07:16.622Z,31.37
2022-08-24T10:22:33.152Z,31.85
2022-08-24T10:38:19.475Z,30.72
2022-08-24T10:53:28.856Z,31.98
2022-08-24T11:08:34.975Z,32.37
2022-08-24T11:23:44.397Z,33.43
2022-08-24T11:38:50.351Z,32.77
2022-08-24T11:54:04.310Z,33.91
2022-08-24T12:09:22.590Z,34.12
2022-08-24T12:24:37.154Z,33.62
2022-08-24T12:39:47.919Z,32.60
2022-08-24T12:55:13.495Z,33.94
2022-08-24T13:10:39.785Z,33.68
2022-08-24T13:26:01.620Z,34.48
2022-08-24T13:41:15.670Z,34.10
2022-08-24T13:56:50.383Z,33.88
2022-08-24T14:12:14.794Z,33.36
2022-08-24T14:27:40.224Z,33.68
2022-08-24T14:42:57.561Z,33.33
2022-08-24T14:58:13.210Z,33.35
2022-08-24T15:13:30.102Z,32.61
2022-08-24T15:28:37.562Z,32.16
2022-08-24T15:43:48.825Z,31.30
2022-08-24T15:58:54.989Z,31.02
2022-08-24T16:14:01.027Z,30.45
2022-08-24T16:29:09.075Z,30.24
2022-08-24T16:44:15.463Z,30.03
2022-08-24T16:59:26.931Z,29.59
2022-08-24T17:14:32.787Z,29.27
2022-08-24T17:29:39.413Z,28.94
2022-08-24T17:44:45.965Z,28.75
2022-08-24T17:59:53.225Z,28.21
2022-08-24T18:15:00.466Z,27.63
2022-08-24T18:30:08.736Z,27.09
2022-08-24T18:45:15.564Z,26.41
2022-08-24T19:00:22.075Z,26.28
2022-08-24T19:15:32.211Z,25.86
2022-08-24T19:30:47.176Z,25.43
2022-08-24T19:46:05.835Z,24.90
2022-08-24T20:01:15.311Z,24.73
2022-08-24T20:16:22.818Z,24.41
2022-08-24T20:31:29.110Z,24.02
2022-08-24T20:46:35.499Z,23.80
2022-08-24T21:01:43.170Z,23.73
2022-08-24T21:16:49.070Z,23.54
2022-08-24T21:32:11.993Z,23.32
2022-08-24T21:47:17.989Z,23.05
2022-08-24T22:02:23.554Z,22.84
2022-08-24T22:17:29.265Z,22.64
2022-08-24T22:32:34.874Z,22.43
2022-08-24T22:47:40.729Z,22.35
2022-08-24T23:02:46.245Z,22.13
2022-08-24T23:17:52.051Z,21.96
2022-08-24T23:32:57.782Z,21.77
2022-08-24T23:48:03.502Z,21.54
